Time,TemperatureF,DewpointF,PressureIn,WindDirection,WindDirectionDegrees,WindSpeedMPH,WindSpeedGustMPH,Humidity,HourlyPrecipIn,Conditions,Clouds,dailyrainin,SoftwareType,DateUTC
2013-04-06 00:04:00,38.0,23.0,30.13,West,259,1.0,9.0,55,0.00,,,0.00,,2013-04-06 04:04:00,
2013-04-06 00:14:00,38.0,23.0,30.13,West,259,1.0,9.0,55,0.00,,,0.00,,2013-04-06 04:14:00,
2013-04-06 00:23:00,37.0,22.0,30.14,West,266,1.0,3.0,55,0.00,,,0.00,,2013-04-06 04:23:00,
2013-04-06 00:33:00,37.0,22.0,30.14,West,266,1.0,3.0,55,0.00,,,0.00,,2013-04-06 04:33:00,
2013-04-06 00:42:00,37.0,22.0,30.14,West,266,1.0,3.0,55,0.00,,,0.00,,2013-04-06 04:42:00,
2013-04-06 00:53:00,36.0,23.0,30.15,WSW,256,0.0,1.0,58,0.00,,,0.00,,2013-04-06 04:53:00,
2013-04-06 01:02:00,36.0,23.0,30.15,WSW,239,0.0,2.0,59,0.00,,,0.00,,2013-04-06 05:02:00,
2013-04-06 01:13:00,36.0,23.0,30.15,WSW,239,0.0,2.0,59,0.00,,,0.00,,2013-04-06 05:13:00,
2013-04-06 01:22:00,35.0,23.0,30.16,WNW,288,1.0,5.0,60,0.00,,,0.00,,2013-04-06 05:22:00,
2013-04-06 01:32:00,35.0,23.0,30.16,WNW,293,1.0,3.0,60,0.00,,,0.00,,2013-04-06 05:32:00,
2013-04-06 01:43:00,35.0,23.0,30.16,WNW,293,1.0,3.0,60,0.00,,,0.00,,2013-04-06 05:43:00,
2013-04-06 01:52:00,35.0,23.0,30.17,SW,235,1.0,3.0,60,0.00,,,0.00,,2013-04-06 05:52:00,
2013-04-06 02:03:00,35.0,23.0,30.17,SW,235,1.0,3.0,60,0.00,,,0.00,,2013-04-06 06:03:00,
2013-04-06 02:12:00,35.0,23.0,30.17,SW,235,1.0,3.0,60,0.00,,,0.00,,2013-04-06 06:12:00,
2013-04-06 02:22:00,34.0,22.0,30.18,ESE,111,1.0,5.0,60,0.00,,,0.00,,2013-04-06 06:22:00,
2013-04-06 02:33:00,34.0,22.0,30.18,WNW,283,1.0,6.0,60,0.00,,,0.00,,2013-04-06 06:33:00,
2013-04-06 02:43:00,34.0,22.0,30.18,WNW,283,1.0,6.0,60,0.00,,,0.00,,2013-04-06 06:43:00,
2013-04-06 02:53:00,33.0,21.0,30.19,WSW,256,1.0,3.0,60,0.00,,,0.00,,2013-04-06 06:53:00,
2013-04-06 03:03:00,33.0,20.0,30.19,WSW,253,0.0,2.0,59,0.00,,,0.00,,2013-04-06 07:03:00,
2013-04-06 03:12:00,33.0,20.0,30.19,WSW,253,0.0,2.0,59,0.00,,,0.00,,2013-04-06 07:12:00,
2013-04-06 03:22:00,32.0,19.0,30.20,West,271,1.0,8.0,58,0.00,,,0.00,,2013-04-06 07:22:00,
2013-04-06 03:33:00,32.0,19.0,30.21,West,276,1.0,2.0,57,0.00,,,0.00,,2013-04-06 07:33:00,
2013-04-06 03:43:00,32.0,19.0,30.21,West,276,1.0,2.0,57,0.00,,,0.00,,2013-04-06 07:43:00,
2013-04-06 03:53:00,31.0,18.0,30.22,West,279,0.0,0.0,59,0.00,,,0.00,,2013-04-06 07:53:00,
2013-04-06 04:02:00,30.0,18.0,30.22,WSW,252,0.0,1.0,60,0.00,,,0.00,,2013-04-06 08:02:00,
2013-04-06 04:13:00,30.0,18.0,30.22,WSW,252,0.0,1.0,60,0.00,,,0.00,,2013-04-06 08:13:00,
2013-04-06 04:22:00,31.0,19.0,30.24,West,264,0.0,2.0,61,0.00,,,0.00,,2013-04-06 08:22:00,
2013-04-06 04:32:00,31.0,19.0,30.25,West,271,0.0,1.0,60,0.00,,,0.00,,2013-04-06 08:32:00,
2013-04-06 04:42:00,31.0,19.0,30.25,West,271,0.0,1.0,60,0.00,,,0.00,,2013-04-06 08:42:00,
2013-04-06 04:52:00,31.0,20.0,30.26,NE,35,0.0,3.0,63,0.00,,,0.00,,2013-04-06 08:52:00,
2013-04-06 05:02:00,31.0,18.0,30.27,West,278,1.0,3.0,58,0.00,,,0.00,,2013-04-06 09:02:00,
2013-04-06 05:13:00,31.0,18.0,30.27,West,278,1.0,3.0,58,0.00,,,0.00,,2013-04-06 09:13:00,
2013-04-06 05:22:00,31.0,14.0,30.29,SW,232,2.0,8.0,49,0.00,,,0.00,,2013-04-06 09:22:00,
2013-04-06 05:33:00,31.0,14.0,30.29,WNW,285,2.0,6.0,48,0.00,,,0.00,,2013-04-06 09:33:00,
2013-04-06 05:43:00,31.0,14.0,30.29,WNW,285,2.0,6.0,48,0.00,,,0.00,,2013-04-06 09:43:00,
2013-04-06 05:53:00,31.0,13.0,30.31,WSW,258,1.0,8.0,46,0.00,,,0.00,,2013-04-06 09:53:00,
2013-04-06 06:03:00,31.0,12.0,30.33,NNE,13,1.0,6.0,45,0.00,,,0.00,,2013-04-06 10:03:00,
2013-04-06 06:13:00,31.0,12.0,30.33,NNE,13,1.0,6.0,45,0.00,,,0.00,,2013-04-06 10:13:00,
2013-04-06 06:23:00,30.0,10.0,30.34,West,270,3.0,14.0,43,0.00,,,0.00,,2013-04-06 10:23:00,
2013-04-06 06:33:00,30.0,9.0,30.35,WNW,287,2.0,5.0,41,0.00,,,0.00,,2013-04-06 10:33:00,
2013-04-06 06:42:00,30.0,9.0,30.35,WNW,287,2.0,5.0,41,0.00,,,0.00,,2013-04-06 10:42:00,
2013-04-06 06:53:00,30.0,10.0,30.36,NW,304,2.0,12.0,42,0.00,,,0.00,,2013-04-06 10:53:00,
2013-04-06 07:03:00,30.0,9.0,30.36,West,266,3.0,8.0,41,0.00,,,0.00,,2013-04-06 11:03:00,
2013-04-06 07:13:00,30.0,9.0,30.36,West,266,3.0,8.0,41,0.00,,,0.00,,2013-04-06 11:13:00,
2013-04-06 07:23:00,30.0,10.0,30.37,WNW,285,2.0,8.0,42,0.00,,,0.00,,2013-04-06 11:23:00,
2013-04-06 07:33:00,30.0,10.0,30.37,WNW,285,2.0,8.0,42,0.00,,,0.00,,2013-04-06 11:33:00,
2013-04-06 07:43:00,30.0,10.0,30.37,WNW,285,2.0,8.0,42,0.00,,,0.00,,2013-04-06 11:43:00,
2013-04-06 07:52:00,30.0,10.0,30.40,WSW,255,1.0,3.0,43,0.00,,,0.00,,2013-04-06 11:52:00,
2013-04-06 08:02:00,30.0,11.0,30.41,WNW,284,2.0,13.0,44,0.00,,,0.00,,2013-04-06 12:02:00,
2013-04-06 08:13:00,30.0,11.0,30.41,WNW,284,2.0,13.0,44,0.00,,,0.00,,2013-04-06 12:13:00,
2013-04-06 08:22:00,30.0,11.0,30.42,WNW,297,2.0,7.0,45,0.00,,,0.00,,2013-04-06 12:22:00,
2013-04-06 08:33:00,30.0,10.0,30.42,WSW,249,2.0,9.0,42,0.00,,,0.00,,2013-04-06 12:33:00,
2013-04-06 08:44:00,30.0,10.0,30.42,WSW,249,2.0,9.0,42,0.00,,,0.00,,2013-04-06 12:44:00,
2013-04-06 08:53:00,31.0,10.0,30.43,West,273,2.0,5.0,41,0.00,,,0.00,,2013-04-06 12:53:00,
2013-04-06 09:03:00,31.0,10.0,30.43,West,273,2.0,5.0,41,0.00,,,0.00,,2013-04-06 13:03:00,
2013-04-06 09:13:00,31.0,10.0,30.43,West,273,2.0,5.0,41,0.00,,,0.00,,2013-04-06 13:13:00,
2013-04-06 09:24:00,32.0,10.0,30.44,WNW,288,2.0,5.0,40,0.00,,,0.00,,2013-04-06 13:24:00,
2013-04-06 09:32:00,32.0,10.0,30.44,WNW,288,2.0,5.0,40,0.00,,,0.00,,2013-04-06 13:32:00,
2013-04-06 09:43:00,32.0,10.0,30.44,WNW,288,2.0,5.0,40,0.00,,,0.00,,2013-04-06 13:43:00,
2013-04-06 09:54:00,33.0,10.0,30.44,WSW,253,2.0,5.0,38,0.00,,,0.00,,2013-04-06 13:54:00,
2013-04-06 10:04:00,33.0,10.0,30.45,North,1,3.0,9.0,38,0.00,,,0.00,,2013-04-06 14:04:00,
2013-04-06 10:12:00,33.0,10.0,30.45,North,1,3.0,9.0,38,0.00,,,0.00,,2013-04-06 14:12:00,
2013-04-06 10:22:00,34.0,9.0,30.45,West,277,3.0,9.0,35,0.00,,,0.00,,2013-04-06 14:22:00,
2013-04-06 10:33:00,34.0,9.0,30.45,West,277,3.0,9.0,35,0.00,,,0.00,,2013-04-06 14:33:00,
2013-04-06 10:43:00,34.0,9.0,30.45,West,277,3.0,9.0,35,0.00,,,0.00,,2013-04-06 14:43:00,
2013-04-06 10:52:00,35.0,8.0,30.47,West,275,3.0,9.0,32,0.00,,,0.00,,2013-04-06 14:52:00,
2013-04-06 11:02:00,36.0,9.0,30.47,WSW,247,2.0,6.0,32,0.00,,,0.00,,2013-04-06 15:02:00,
2013-04-06 11:12:00,36.0,9.0,30.47,WSW,247,2.0,6.0,32,0.00,,,0.00,,2013-04-06 15:12:00,
2013-04-06 11:23:00,37.0,9.0,30.48,WSW,242,2.0,7.0,31,0.00,,,0.00,,2013-04-06 15:23:00,
2013-04-06 11:33:00,38.0,11.0,30.48,South,181,1.0,6.0,32,0.00,,,0.00,,2013-04-06 15:33:00,
2013-04-06 11:43:00,38.0,11.0,30.48,South,181,1.0,6.0,32,0.00,,,0.00,,2013-04-06 15:43:00,
2013-04-06 11:53:00,38.0,9.0,30.47,WNW,283,3.0,8.0,30,0.00,,,0.00,,2013-04-06 15:53:00,
2013-04-06 12:05:00,38.0,10.0,30.48,West,267,3.0,8.0,31,0.00,,,0.00,,2013-04-06 16:05:00,
2013-04-06 12:17:00,38.0,10.0,30.48,West,267,3.0,8.0,31,0.00,,,0.00,,2013-04-06 16:17:00,
2013-04-06 12:23:00,39.0,10.0,30.48,West,269,2.0,7.0,30,0.00,,,0.00,,2013-04-06 16:23:00,
2013-04-06 12:33:00,39.0,10.0,30.48,West,269,2.0,7.0,30,0.00,,,0.00,,2013-04-06 16:33:00,
2013-04-06 12:42:00,39.0,10.0,30.48,West,269,2.0,7.0,30,0.00,,,0.00,,2013-04-06 16:42:00,
2013-04-06 12:53:00,40.0,9.0,30.48,West,267,2.0,7.0,27,0.00,,,0.00,,2013-04-06 16:53:00,
2013-04-06 13:03:00,40.0,9.0,30.48,West,267,2.0,7.0,27,0.00,,,0.00,,2013-04-06 17:03:00,
2013-04-06 13:13:00,40.0,9.0,30.48,West,267,2.0,7.0,27,0.00,,,0.00,,2013-04-06 17:13:00,
2013-04-06 13:22:00,41.0,10.0,30.49,WSW,255,3.0,8.0,27,0.00,,,0.00,,2013-04-06 17:22:00,
2013-04-06 13:33:00,42.0,13.0,30.47,West,278,2.0,7.0,30,0.00,,,0.00,,2013-04-06 17:33:00,
2013-04-06 13:43:00,42.0,13.0,30.47,West,278,2.0,7.0,30,0.00,,,0.00,,2013-04-06 17:43:00,
2013-04-06 13:52:00,42.0,9.0,30.47,WSW,255,3.0,5.0,25,0.00,,,0.00,,2013-04-06 17:52:00,
2013-04-06 14:03:00,42.0,9.0,30.47,WSW,255,3.0,5.0,25,0.00,,,0.00,,2013-04-06 18:03:00,
2013-04-06 14:12:00,42.0,9.0,30.47,WSW,255,3.0,5.0,25,0.00,,,0.00,,2013-04-06 18:12:00,
2013-04-06 14:23:00,43.0,9.0,30.48,West,271,2.0,5.0,24,0.00,,,0.00,,2013-04-06 18:23:00,
2013-04-06 14:32:00,44.0,9.0,30.49,WNW,283,3.0,6.0,23,0.00,,,0.00,,2013-04-06 18:32:00,
2013-04-06 14:43:00,44.0,9.0,30.49,WNW,283,3.0,6.0,23,0.00,,,0.00,,2013-04-06 18:43:00,
2013-04-06 14:52:00,44.0,9.0,30.49,WNW,283,3.0,6.0,23,0.00,,,0.00,,2013-04-06 18:52:00,
2013-04-06 15:03:00,44.0,8.0,30.47,WNW,284,4.0,12.0,22,0.00,,,0.00,,2013-04-06 19:03:00,
2013-04-06 15:12:00,44.0,8.0,30.47,WNW,284,4.0,12.0,22,0.00,,,0.00,,2013-04-06 19:12:00,
2013-04-06 15:23:00,44.0,6.0,30.47,WNW,302,3.0,6.0,20,0.00,,,0.00,,2013-04-06 19:23:00,
2013-04-06 15:33:00,45.0,6.0,30.47,NE,41,2.0,6.0,20,0.00,,,0.00,,2013-04-06 19:33:00,
2013-04-06 15:42:00,45.0,6.0,30.47,NE,41,2.0,6.0,20,0.00,,,0.00,,2013-04-06 19:42:00,
2013-04-06 15:53:00,45.0,7.0,30.47,WSW,256,3.0,6.0,21,0.00,,,0.00,,2013-04-06 19:53:00,
2013-04-06 16:03:00,45.0,6.0,30.47,West,271,2.0,6.0,20,0.00,,,0.00,,2013-04-06 20:03:00,
2013-04-06 16:12:00,45.0,6.0,30.47,West,271,2.0,6.0,20,0.00,,,0.00,,2013-04-06 20:12:00,
2013-04-06 16:23:00,44.0,7.0,30.47,WSW,253,1.0,3.0,21,0.00,,,0.00,,2013-04-06 20:23:00,
2013-04-06 16:32:00,44.0,6.0,30.47,East,82,1.0,5.0,20,0.00,,,0.00,,2013-04-06 20:32:00,
2013-04-06 16:42:00,44.0,6.0,30.47,East,82,1.0,5.0,20,0.00,,,0.00,,2013-04-06 20:42:00,
2013-04-06 16:53:00,44.0,9.0,30.48,West,274,2.0,5.0,23,0.00,,,0.00,,2013-04-06 20:53:00,
2013-04-06 17:02:00,45.0,5.0,30.48,West,278,2.0,3.0,19,0.00,,,0.00,,2013-04-06 21:02:00,
2013-04-06 17:13:00,45.0,4.0,30.49,WNW,284,1.0,5.0,18,0.00,,,0.00,,2013-04-06 21:13:00,
2013-04-06 17:22:00,45.0,4.0,30.49,WNW,284,1.0,5.0,18,0.00,,,0.00,,2013-04-06 21:22:00,
2013-04-06 17:33:00,44.0,3.0,30.49,West,276,2.0,6.0,18,0.00,,,0.00,,2013-04-06 21:33:00,
2013-04-06 17:43:00,44.0,3.0,30.49,West,276,2.0,6.0,18,0.00,,,0.00,,2013-04-06 21:43:00,
2013-04-06 17:53:00,44.0,4.0,30.50,WNW,297,1.0,5.0,19,0.00,,,0.00,,2013-04-06 21:53:00,
2013-04-06 18:03:00,44.0,6.0,30.50,WNW,286,1.0,3.0,20,0.00,,,0.00,,2013-04-06 22:03:00,
2013-04-06 18:13:00,44.0,6.0,30.50,WNW,286,1.0,3.0,20,0.00,,,0.00,,2013-04-06 22:13:00,
2013-04-06 18:23:00,43.0,8.0,30.52,West,276,0.0,3.0,23,0.00,,,0.00,,2013-04-06 22:23:00,
2013-04-06 18:35:00,43.0,8.0,30.52,West,270,1.0,2.0,23,0.00,,,0.00,,2013-04-06 22:35:00,
2013-04-06 18:43:00,43.0,8.0,30.52,West,270,1.0,2.0,23,0.00,,,0.00,,2013-04-06 22:43:00,
2013-04-06 18:54:00,42.0,7.0,30.53,North,6,0.0,3.0,23,0.00,,,0.00,,2013-04-06 22:54:00,
2013-04-06 19:03:00,42.0,9.0,30.53,West,259,0.0,2.0,25,0.00,,,0.00,,2013-04-06 23:03:00,
2013-04-06 19:14:00,42.0,9.0,30.53,West,259,0.0,2.0,25,0.00,,,0.00,,2013-04-06 23:14:00,
2013-04-06 19:23:00,40.0,9.0,30.54,West,260,0.0,0.0,27,0.00,,,0.00,,2013-04-06 23:23:00,
2013-04-06 19:34:00,40.0,7.0,30.55,West,262,0.0,0.0,25,0.00,,,0.00,,2013-04-06 23:34:00,
2013-04-06 19:43:00,40.0,7.0,30.55,West,262,0.0,0.0,25,0.00,,,0.00,,2013-04-06 23:43:00,
2013-04-06 19:53:00,38.0,8.0,30.55,West,260,0.0,0.0,28,0.00,,,0.00,,2013-04-06 23:53:00,
2013-04-06 20:02:00,37.0,8.0,30.56,West,260,0.0,0.0,30,0.00,,,0.00,,2013-04-07 00:02:00,
2013-04-06 20:13:00,37.0,8.0,30.56,West,260,0.0,0.0,30,0.00,,,0.00,,2013-04-07 00:13:00,
2013-04-06 20:22:00,36.0,10.0,30.58,West,260,0.0,0.0,34,0.00,,,0.00,,2013-04-07 00:22:00,
2013-04-06 20:33:00,35.0,11.0,30.58,West,260,0.0,0.0,36,0.00,,,0.00,,2013-04-07 00:33:00,
2013-04-06 20:43:00,35.0,11.0,30.58,West,260,0.0,0.0,36,0.00,,,0.00,,2013-04-07 00:43:00,
2013-04-06 20:53:00,34.0,10.0,30.59,West,260,0.0,0.0,36,0.00,,,0.00,,2013-04-07 00:53:00,
2013-04-06 21:02:00,33.0,10.0,30.59,West,260,0.0,0.0,38,0.00,,,0.00,,2013-04-07 01:02:00,
2013-04-06 21:12:00,33.0,10.0,30.59,West,260,0.0,0.0,38,0.00,,,0.00,,2013-04-07 01:12:00,
2013-04-06 21:23:00,33.0,11.0,30.59,West,260,0.0,0.0,39,0.00,,,0.00,,2013-04-07 01:23:00,
2013-04-06 21:33:00,32.0,12.0,30.60,West,259,0.0,0.0,43,0.00,,,0.00,,2013-04-07 01:33:00,
2013-04-06 21:43:00,32.0,12.0,30.60,West,259,0.0,0.0,43,0.00,,,0.00,,2013-04-07 01:43:00,
2013-04-06 21:53:00,31.0,12.0,30.60,West,260,0.0,0.0,45,0.00,,,0.00,,2013-04-07 01:53:00,
2013-04-06 22:03:00,31.0,12.0,30.59,West,260,0.0,0.0,45,0.00,,,0.00,,2013-04-07 02:03:00,
2013-04-06 22:12:00,31.0,12.0,30.59,West,260,0.0,0.0,45,0.00,,,0.00,,2013-04-07 02:12:00,
2013-04-06 22:23:00,30.0,12.0,30.60,West,260,0.0,0.0,46,0.00,,,0.00,,2013-04-07 02:23:00,
2013-04-06 22:33:00,29.0,12.0,30.60,West,259,0.0,0.0,48,0.00,,,0.00,,2013-04-07 02:33:00,
2013-04-06 22:43:00,29.0,12.0,30.60,West,259,0.0,0.0,48,0.00,,,0.00,,2013-04-07 02:43:00,
2013-04-06 22:52:00,29.0,11.0,30.60,West,259,0.0,0.0,46,0.00,,,0.00,,2013-04-07 02:52:00,
2013-04-06 23:02:00,28.0,10.0,30.61,West,260,0.0,0.0,46,0.00,,,0.00,,2013-04-07 03:02:00,
2013-04-06 23:12:00,28.0,10.0,30.61,West,260,0.0,0.0,46,0.00,,,0.00,,2013-04-07 03:12:00,
2013-04-06 23:22:00,28.0,12.0,30.61,West,259,0.0,0.0,50,0.00,,,0.00,,2013-04-07 03:22:00,
2013-04-06 23:35:00,28.0,13.0,30.61,West,259,0.0,0.0,52,0.00,,,0.00,,2013-04-07 03:35:00,
2013-04-06 23:44:00,28.0,13.0,30.61,West,259,0.0,0.0,52,0.00,,,0.00,,2013-04-07 03:44:00,
2013-04-06 23:55:00,27.0,13.0,30.61,West,260,0.0,0.0,55,0.00,,,0.00,,2013-04-07 03:55:00,